Time;durP1;ratioP1;P1;durP2;ratioP2;P2;SDS_P1;SDS_P2;PMS_P1;PMS_P2;Temp;Humidity;BMP_temperature;BMP_pressure;BME280_temperature;BME280_humidity;BME280_pressure;Samples;Min_cycle;Max_cycle;Signal;HPM_P1;HPM_P2
2023/01/17 00:00:19;;;;;;;2.60;1.30;;;;;;;2.08;100.00;97053.84;7394669;19;20538;-55
2023/01/17 00:02:45;;;;;;;4.50;2.90;;;;;;;1.50;100.00;97050.31;7392294;19;20006;-55
2023/01/17 00:10:44;;;;;;;1.13;0.75;;;;;;;1.26;100.00;97047.03;7389985;19;20006;-55
2023/01/17 00:13:10;;;;;;;2.83;1.20;;;;;;;1.39;100.00;97046.69;7392768;19;20011;-55
2023/01/17 00:15:38;;;;;;;7.50;1.67;;;;;;;1.51;100.00;97049.06;7392805;19;20032;-55
2023/01/17 00:18:04;;;;;;;4.50;1.95;;;;;;;1.49;100.00;97045.31;7390517;19;20015;-55
2023/01/17 00:26:14;;;;;;;4.18;1.77;;;;;;;1.01;100.00;97038.78;7395274;19;20014;-54
2023/01/17 01:35:49;;;;;;;4.20;2.00;;;;;;;5.89;100.00;96992.69;7391156;19;20010;-55
2023/01/17 01:38:16;;;;;;;;;;;;;;;6.36;100.00;96989.81;7391102;19;20325;-56
2023/01/17 01:40:48;;;;;;;0.40;0.40;;;;;;;5.57;100.00;96990.88;7391423;19;19915;-55
2023/01/17 01:43:18;;;;;;;1.42;0.77;;;;;;;5.75;100.00;96993.03;7389680;19;20015;-53
2023/01/17 01:45:53;;;;;;;2.05;0.63;;;;;;;4.95;100.00;96995.22;7391821;19;20099;-54
2023/01/17 01:48:28;;;;;;;14.73;2.47;;;;;;;3.78;100.00;96997.38;7390267;19;20022;-54
2023/01/17 01:50:55;;;;;;;2.22;0.77;;;;;;;4.49;100.00;96999.34;7391418;19;20366;-54
2023/01/17 01:53:21;;;;;;;3.65;1.15;;;;;;;3.47;100.00;97008.59;7396230;19;20343;-54
2023/01/17 01:55:50;;;;;;;3.85;0.93;;;;;;;2.39;100.00;97018.13;7398544;19;20010;-54
2023/01/17 01:58:21;;;;;;;4.60;0.88;;;;;;;2.88;100.00;97017.63;7396615;19;20019;-54
2023/01/17 02:00:47;;;;;;;3.05;1.35;;;;;;;5.37;100.00;97019.63;7399525;19;20021;-54
2023/01/17 02:03:18;;;;;;;0.43;0.43;;;;;;;3.64;100.00;97023.13;7395384;19;20019;-54
2023/01/17 02:05:45;;;;;;;2.88;1.17;;;;;;;7.37;100.00;97018.59;7397557;19;20486;-54
2023/01/17 02:08:18;;;;;;;15.45;2.55;;;;;;;3.72;100.00;97029.66;7396199;19;20833;-54
2023/01/17 02:10:45;;;;;;;2.72;1.85;;;;;;;6.01;100.00;97018.22;7396648;19;20523;-56
2023/01/17 02:13:15;;;;;;;1.65;1.55;;;;;;;7.49;100.00;97023.47;7396672;19;20019;-54
2023/01/17 02:16:02;;;;;;;1.80;1.02;;;;;;;13.26;84.90;97016.53;7396202;19;20046;-54
2023/01/17 02:19:06;;;;;;;11.40;1.13;;;;;;;5.17;100.00;97028.97;7394471;19;20017;-54
2023/01/17 02:21:41;;;;;;;5.93;1.45;;;;;;;2.05;100.00;97033.59;7393208;19;20025;-54
2023/01/17 02:24:33;;;;;;;0.80;0.68;;;;;;;3.32;100.00;97030.81;7396043;19;20014;-57
2023/01/17 02:27:06;;;;;;;1.55;0.45;;;;;;;3.85;100.00;97027.19;7400236;19;20035;-56
2023/01/17 02:30:09;;;;;;;0.50;0.50;;;;;;;8.97;100.00;97009.78;7394677;19;20010;-56
2023/01/17 02:32:44;;;;;;;2.22;1.02;;;;;;;4.12;100.00;97018.16;7395603;19;20011;-54
2023/01/17 02:35:23;;;;;;;0.68;0.68;;;;;;;8.17;100.00;97001.84;7395116;19;20010;-54
2023/01/17 02:38:24;;;;;;;5.18;2.20;;;;;;;7.95;100.00;97008.47;7395499;19;20006;-54
2023/01/17 02:41:00;;;;;;;5.63;1.10;;;;;;;3.40;100.00;97025.59;7395352;19;20019;-54
2023/01/17 02:43:26;;;;;;;1.13;0.98;;;;;;;2.54;100.00;97018.72;7395630;19;20017;-54
2023/01/17 02:45:53;;;;;;;1.40;0.98;;;;;;;2.19;100.00;97020.97;7397259;19;20359;-54
2023/01/17 02:48:23;;;;;;;1.95;0.95;;;;;;;2.63;100.00;97021.25;7394013;19;20022;-54
2023/01/17 02:51:04;;;;;;;15.75;1.67;;;;;;;0.88;100.00;97019.94;7394465;19;20498;-54
2023/01/17 02:53:58;;;;;;;2.72;1.00;;;;;;;0.70;100.00;97017.47;7394359;19;20023;-54
2023/01/17 02:56:47;;;;;;;5.63;0.73;;;;;;;6.35;100.00;97019.44;7397538;19;20100;-55
2023/01/17 02:59:35;;;;;;;1.23;0.63;;;;;;;2.58;100.00;97024.72;7395242;19;20478;-55
2023/01/17 03:02:13;;;;;;;0.43;0.43;;;;;;;2.34;100.00;97021.56;7391652;19;20754;-55
2023/01/17 03:04:50;;;;;;;5.40;0.93;;;;;;;3.10;100.00;97027.25;7394463;19;20011;-55
2023/01/17 03:07:22;;;;;;;1.85;1.25;;;;;;;3.81;100.00;97021.16;7395052;19;20018;-55
2023/01/17 03:09:52;;;;;;;1.10;0.68;;;;;;;1.64;100.00;97023.25;7395349;19;20748;-55
2023/01/17 03:12:19;;;;;;;0.28;0.28;;;;;;;1.41;100.00;97031.25;7394846;19;20010;-54
2023/01/17 03:14:45;;;;;;;0.35;0.35;;;;;;;3.01;100.00;97028.94;7392717;19;20011;-55
2023/01/17 03:17:12;;;;;;;0.68;0.43;;;;;;;3.20;100.00;97023.03;7394349;19;20017;-55
2023/01/17 03:19:38;;;;;;;0.40;0.30;;;;;;;2.92;100.00;97029.16;7394470;19;20018;-55
2023/01/17 03:22:04;;;;;;;11.68;0.73;;;;;;;1.58;100.00;97033.44;7394843;19;20034;-55
2023/01/17 03:24:30;;;;;;;2.08;0.90;;;;;;;2.13;100.00;97033.91;7394605;19;20011;-55
2023/01/17 03:26:56;;;;;;;1.95;1.02;;;;;;;5.29;100.00;97032.44;7398703;19;20455;-55
2023/01/17 03:29:22;;;;;;;4.75;1.20;;;;;;;5.52;100.00;97038.59;7394514;19;20482;-55
2023/01/17 03:31:49;;;;;;;1.27;1.17;;;;;;;2.92;100.00;97034.63;7394280;19;20017;-55
2023/01/17 03:34:15;;;;;;;5.40;0.65;;;;;;;3.84;100.00;97031.16;7392955;19;20015;-55
2023/01/17 03:36:41;;;;;;;1.25;0.52;;;;;;;9.29;100.00;97018.00;7395001;19;20014;-55
2023/01/17 03:39:07;;;;;;;1.35;0.30;;;;;;;4.87;100.00;97014.31;7398361;19;20078;-55
2023/01/17 03:41:33;;;;;;;8.02;1.92;;;;;;;7.46;100.00;97019.00;7392303;19;20021;-56
2023/01/17 03:44:00;;;;;;;3.50;1.23;;;;;;;7.49;100.00;97012.41;7394135;19;20021;-55
2023/01/17 03:46:27;;;;;;;1.45;1.27;;;;;;;3.78;100.00;97022.16;7397285;19;20010;-55
2023/01/17 03:48:53;;;;;;;18.27;1.35;;;;;;;2.56;100.00;97020.97;7394361;19;20011;-55
2023/01/17 03:51:20;;;;;;;3.78;1.15;;;;;;;2.40;100.00;97024.38;7394591;19;20018;-55
2023/01/17 03:53:46;;;;;;;3.50;0.70;;;;;;;4.63;100.00;97020.34;7393778;19;20025;-55
2023/01/17 03:56:13;;;;;;;1.20;0.75;;;;;;;5.18;100.00;97008.41;7395297;19;20019;-55
2023/01/17 03:58:41;;;;;;;1.95;0.85;;;;;;;7.30;100.00;97014.41;7393692;19;20439;-55
2023/01/17 04:01:07;;;;;;;3.03;0.68;;;;;;;2.55;100.00;97025.72;7391938;19;20018;-55
2023/01/17 04:03:34;;;;;;;1.95;1.40;;;;;;;1.41;100.00;97020.28;7392080;19;20324;-55
2023/01/17 04:06:00;;;;;;;2.17;0.50;;;;;;;1.08;100.00;97014.47;7394497;19;20031;-55
2023/01/17 04:08:27;;;;;;;6.63;0.90;;;;;;;0.99;100.00;97019.31;7395536;19;20475;-55
2023/01/17 04:10:53;;;;;;;1.95;0.77;;;;;;;1.29;100.00;97021.44;7391927;19;20042;-55
2023/01/17 04:13:19;;;;;;;2.65;0.80;;;;;;;6.13;100.00;97013.38;7393321;19;20015;-54
2023/01/17 04:15:47;;;;;;;3.13;0.55;;;;;;;2.16;100.00;97017.22;7391165;19;20500;-54
2023/01/17 04:18:16;;;;;;;2.00;1.80;;;;;;;6.17;100.00;97008.31;7390269;19;20018;-55
2023/01/17 04:20:43;;;;;;;5.72;1.58;;;;;;;1.86;100.00;97009.75;7390480;19;20110;-55
2023/01/17 04:23:09;;;;;;;3.45;1.42;;;;;;;5.73;100.00;97003.84;7392966;19;20024;-55
2023/01/17 04:25:36;;;;;;;4.43;1.30;;;;;;;3.51;100.00;96998.84;7392702;19;20043;-55
2023/01/17 04:28:03;;;;;;;6.78;0.85;;;;;;;1.82;100.00;97003.72;7392013;19;20066;-55
2023/01/17 04:30:30;;;;;;;9.63;2.13;;;;;;;1.46;100.00;97011.38;7389517;19;20019;-55
2023/01/17 04:32:57;;;;;;;7.82;1.65;;;;;;;1.46;100.00;97014.13;7393166;19;20602;-55
2023/01/17 04:35:23;;;;;;;4.63;1.80;;;;;;;2.78;100.00;97004.59;7390576;19;20014;-55
2023/01/17 04:37:50;;;;;;;1.00;0.38;;;;;;;0.93;100.00;97008.31;7392097;19;20062;-55
2023/01/17 04:40:17;;;;;;;1.65;0.70;;;;;;;0.79;100.00;97011.88;7389843;19;20014;-55
2023/01/17 04:42:44;;;;;;;15.07;2.40;;;;;;;0.52;100.00;97015.00;7391896;19;20022;-55
2023/01/17 04:45:11;;;;;;;10.55;1.90;;;;;;;1.30;100.00;97013.97;7391167;19;20031;-60
2023/01/17 04:47:37;;;;;;;1.17;0.68;;;;;;;1.13;100.00;97015.75;7391188;19;20011;-59
2023/01/17 04:50:04;;;;;;;1.95;1.20;;;;;;;1.32;100.00;97012.22;7389722;19;20007;-57
2023/01/17 04:52:30;;;;;;;3.70;0.73;;;;;;;1.59;100.00;97010.25;7389257;19;20010;-56
2023/01/17 04:54:56;;;;;;;5.32;2.42;;;;;;;1.35;100.00;97005.78;7389425;19;20016;-55
2023/01/17 04:57:23;;;;;;;5.82;1.67;;;;;;;1.62;100.00;97007.28;7388899;19;20011;-60
2023/01/17 04:59:52;;;;;;;2.45;1.00;;;;;;;1.70;100.00;97011.09;7389108;19;20018;-55
2023/01/17 05:02:19;;;;;;;2.72;1.75;;;;;;;1.76;100.00;97011.13;7390218;19;20011;-55
2023/01/17 05:04:45;;;;;;;1.05;0.63;;;;;;;1.66;100.00;97001.59;7389516;19;20014;-58
2023/01/17 05:07:11;;;;;;;6.78;0.68;;;;;;;1.66;100.00;97001.59;7391481;19;20027;-55
2023/01/17 05:09:37;;;;;;;2.83;1.25;;;;;;;1.67;100.00;97014.81;7393749;19;20045;-55
2023/01/17 05:12:04;;;;;;;2.53;1.38;;;;;;;2.88;100.00;97003.91;7388038;19;20014;-55
2023/01/17 05:14:33;;;;;;;5.93;1.65;;;;;;;3.88;100.00;97009.66;7388373;19;20010;-54
2023/01/17 05:16:59;;;;;;;6.20;1.33;;;;;;;2.22;100.00;97014.50;7394062;19;20006;-55
2023/01/17 05:19:26;;;;;;;1.50;0.95;;;;;;;2.03;100.00;97016.13;7389390;19;20014;-54
2023/01/17 05:21:52;;;;;;;0.70;0.70;;;;;;;2.54;100.00;97015.97;7389117;19;20028;-55
2023/01/17 05:24:19;;;;;;;3.22;1.50;;;;;;;3.04;100.00;97000.47;7388743;19;20018;-55
2023/01/17 05:26:53;;;;;;;3.45;1.33;;;;;;;2.95;100.00;97005.41;7392179;19;20010;-55
2023/01/17 05:29:20;;;;;;;3.08;0.60;;;;;;;2.00;100.00;97008.84;7388067;19;20038;-55
2023/01/17 05:31:46;;;;;;;1.15;1.05;;;;;;;1.57;100.00;97004.50;7389541;19;20052;-55
2023/01/17 05:34:12;;;;;;;8.05;1.80;;;;;;;1.97;100.00;97009.84;7389643;19;20034;-55
2023/01/17 05:36:38;;;;;;;8.82;2.25;;;;;;;5.16;100.00;96999.88;7392841;19;20014;-55
2023/01/17 05:39:05;;;;;;;7.97;2.22;;;;;;;6.65;100.00;97005.59;7394229;19;20023;-55
2023/01/17 05:41:31;;;;;;;7.55;0.88;;;;;;;11.32;91.13;97003.22;7388706;19;20022;-55
2023/01/17 05:43:57;;;;;;;1.27;0.43;;;;;;;14.96;73.27;96993.56;7388382;19;20019;-55
2023/01/17 05:46:23;;;;;;;0.80;0.68;;;;;;;11.26;73.34;97010.94;7392488;19;20014;-56
2023/01/17 05:48:49;;;;;;;1.80;1.27;;;;;;;3.95;100.00;97014.66;7388331;19;20006;-55
2023/01/17 05:51:15;;;;;;;2.47;1.10;;;;;;;1.07;100.00;97023.91;7387975;19;20086;-55
2023/01/17 05:53:41;;;;;;;3.17;0.75;;;;;;;1.56;100.00;97027.69;7388811;19;20021;-55
2023/01/17 05:56:08;;;;;;;2.20;1.95;;;;;;;1.29;100.00;97032.38;7391211;19;20011;-54
2023/01/17 05:58:34;;;;;;;3.30;2.08;;;;;;;0.89;100.00;97029.66;7386891;19;20025;-55
2023/01/17 06:01:00;;;;;;;5.68;3.50;;;;;;;0.51;100.00;97032.66;7389327;19;20037;-55
2023/01/17 06:03:26;;;;;;;2.60;1.63;;;;;;;0.28;100.00;97039.03;7386886;19;20011;-56
2023/01/17 06:05:52;;;;;;;1.50;1.08;;;;;;;0.34;100.00;97034.41;7391080;19;20048;-55
2023/01/17 06:08:19;;;;;;;20.00;1.95;;;;;;;0.32;100.00;97032.16;7391279;19;20062;-55
2023/01/17 06:10:45;;;;;;;4.63;1.13;;;;;;;0.89;100.00;97028.94;7389013;19;20010;-55
2023/01/17 06:13:14;;;;;;;0.65;0.25;;;;;;;0.57;100.00;97030.75;7387333;19;20011;-55
2023/01/17 06:15:41;;;;;;;0.77;0.77;;;;;;;1.38;100.00;97032.25;7388398;19;20015;-55
2023/01/17 06:18:12;;;;;;;3.25;1.33;;;;;;;1.28;100.00;97038.34;7389170;19;20042;-55
2023/01/17 06:20:38;;;;;;;1.17;1.10;;;;;;;1.39;100.00;97039.22;7389027;19;20011;-55
2023/01/17 06:23:07;;;;;;;2.20;1.83;;;;;;;1.56;100.00;97039.38;7388171;19;20366;-55
2023/01/17 06:25:37;;;;;;;19.25;3.63;;;;;;;1.64;100.00;97037.72;7388576;19;20041;-55
2023/01/17 06:28:05;;;;;;;9.98;3.00;;;;;;;1.56;100.00;97041.38;7388282;19;20003;-55
2023/01/17 06:30:32;;;;;;;8.27;2.05;;;;;;;1.49;100.00;97037.81;7387641;19;20017;-55
2023/01/17 06:32:58;;;;;;;1.67;0.80;;;;;;;1.68;100.00;97043.00;7391560;19;20015;-55
2023/01/17 06:35:24;;;;;;;9.45;2.83;;;;;;;1.61;100.00;97043.41;7389064;19;20066;-55
2023/01/17 06:37:52;;;;;;;15.40;3.97;;;;;;;1.80;100.00;97045.34;7389685;19;20092;-54
2023/01/17 06:40:18;;;;;;;5.45;2.53;;;;;;;1.73;100.00;97042.31;7395743;19;20021;-55
2023/01/17 06:42:44;;;;;;;3.00;1.85;;;;;;;1.72;100.00;97036.06;7395187;19;20038;-55
2023/01/17 06:45:10;;;;;;;8.65;2.70;;;;;;;1.83;100.00;97043.63;7395037;19;20043;-55
2023/01/17 06:47:38;;;;;;;6.18;1.08;;;;;;;1.76;100.00;97046.81;7393497;19;20040;-55
2023/01/17 06:50:12;;;;;;;5.35;2.05;;;;;;;1.81;100.00;97052.34;7393985;19;20025;-55
2023/01/17 06:52:39;;;;;;;5.10;1.85;;;;;;;1.84;100.00;97056.84;7395138;19;20079;-55
2023/01/17 06:55:06;;;;;;;3.13;1.00;;;;;;;1.84;100.00;97050.63;7396215;19;20010;-55
2023/01/17 06:57:33;;;;;;;6.38;1.63;;;;;;;1.92;100.00;97057.19;7394676;19;20062;-55
2023/01/17 06:59:59;;;;;;;5.93;1.73;;;;;;;1.93;100.00;97064.91;7393983;19;20039;-55
2023/01/17 07:02:25;;;;;;;10.07;1.75;;;;;;;1.85;100.00;97069.34;7393636;19;20482;-55
2023/01/17 07:04:51;;;;;;;1.42;1.38;;;;;;;1.91;100.00;97063.91;7395071;19;20023;-55
2023/01/17 07:07:18;;;;;;;9.77;1.75;;;;;;;2.75;100.00;97061.28;7392966;19;20725;-55
2023/01/17 07:09:44;;;;;;;1.15;0.98;;;;;;;1.97;100.00;97064.72;7394017;19;20038;-55
2023/01/17 07:12:10;;;;;;;9.48;2.30;;;;;;;1.96;100.00;97068.69;7394258;19;20487;-55
2023/01/17 07:14:36;;;;;;;2.17;1.20;;;;;;;2.01;100.00;97071.50;7392464;19;20014;-55
2023/01/17 07:17:03;;;;;;;1.42;0.98;;;;;;;1.73;100.00;97070.50;7399684;19;20017;-55
2023/01/17 07:19:29;;;;;;;9.77;1.58;;;;;;;1.89;100.00;97071.88;7394981;19;20070;-55
2023/01/17 07:21:55;;;;;;;2.83;1.30;;;;;;;1.99;100.00;97070.47;7394052;19;20040;-56
2023/01/17 07:24:21;;;;;;;3.20;2.42;;;;;;;1.86;100.00;97075.59;7393779;19;20371;-55
2023/01/17 07:26:48;;;;;;;21.05;2.38;;;;;;;1.89;100.00;97082.84;7395950;19;20097;-56
2023/01/17 07:29:15;;;;;;;8.50;3.22;;;;;;;2.08;100.00;97082.03;7392846;19;20014;-56
2023/01/17 07:31:42;;;;;;;7.93;2.22;;;;;;;3.14;100.00;97083.47;7394285;19;20088;-55
2023/01/17 07:34:09;;;;;;;21.58;3.80;;;;;;;5.21;100.00;97081.13;7394520;19;20014;-55
2023/01/17 07:36:35;;;;;;;8.93;1.10;;;;;;;8.76;100.00;97084.59;7398346;19;20018;-55
2023/01/17 07:39:02;;;;;;;1.90;1.80;;;;;;;4.66;100.00;97090.25;7396414;19;20519;-55
2023/01/17 07:41:33;;;;;;;4.68;1.63;;;;;;;9.03;100.00;97083.34;7393603;19;20035;-55
2023/01/17 07:44:03;;;;;;;1.55;0.70;;;;;;;5.30;100.00;97089.13;7392514;19;20013;-55
2023/01/17 07:46:30;;;;;;;20.20;1.98;;;;;;;2.86;100.00;97099.81;7396741;19;20082;-54
2023/01/17 07:48:56;;;;;;;3.05;1.63;;;;;;;2.30;100.00;97100.66;7392865;19;20014;-55
2023/01/17 07:51:22;;;;;;;0.75;0.73;;;;;;;2.16;100.00;97104.31;7392095;19;20035;-55
2023/01/17 07:53:48;;;;;;;4.10;1.17;;;;;;;2.26;100.00;97091.91;7392812;19;20014;-55
2023/01/17 07:56:14;;;;;;;7.00;1.30;;;;;;;2.56;100.00;97090.38;7394426;19;20015;-55
2023/01/17 07:58:41;;;;;;;0.90;0.65;;;;;;;2.36;100.00;97101.47;7390995;19;20007;-55
2023/01/17 08:01:10;;;;;;;1.85;1.70;;;;;;;7.94;100.00;97097.69;7396349;19;20014;-55
2023/01/17 08:03:39;;;;;;;13.05;2.03;;;;;;;10.94;91.71;97091.31;7396798;19;20034;-55
2023/01/17 08:06:14;;;;;;;3.33;1.80;;;;;;;8.64;100.00;97099.19;7398195;19;20105;-55
2023/01/17 08:08:40;;;;;;;9.93;1.98;;;;;;;9.02;100.00;97100.53;7396740;19;20014;-55
2023/01/17 08:11:06;;;;;;;3.95;2.08;;;;;;;8.10;100.00;97102.97;7395933;19;20016;-55
2023/01/17 08:13:33;;;;;;;15.73;3.60;;;;;;;6.11;100.00;97105.78;7396364;19;20010;-55
2023/01/17 08:16:02;;;;;;;4.95;0.80;;;;;;;8.72;100.00;97109.13;7391896;19;20015;-54
2023/01/17 08:18:29;;;;;;;19.30;3.53;;;;;;;8.46;100.00;97103.50;7392300;19;20014;-55
2023/01/17 08:20:55;;;;;;;9.32;2.17;;;;;;;8.58;100.00;97102.03;7391878;19;20011;-54
2023/01/17 08:23:22;;;;;;;10.57;1.27;;;;;;;8.85;100.00;97109.16;7395329;19;20018;-55
2023/01/17 08:25:48;;;;;;;13.57;1.83;;;;;;;8.94;100.00;97113.56;7396106;19;20022;-54
2023/01/17 08:28:14;;;;;;;3.90;2.38;;;;;;;9.04;100.00;97112.59;7391026;19;20006;-54
2023/01/17 08:30:41;;;;;;;2.55;1.73;;;;;;;9.10;100.00;97115.28;7390699;19;20467;-54
2023/01/17 08:33:07;;;;;;;2.13;1.95;;;;;;;14.79;80.72;97105.56;7393683;19;20101;-54
2023/01/17 08:35:33;;;;;;;20.63;1.38;;;;;;;10.80;84.79;97119.78;7394444;19;20010;-55
2023/01/17 08:38:03;;;;;;;5.43;3.13;;;;;;;10.55;89.66;97111.75;7394286;19;20025;-55
2023/01/17 08:40:32;;;;;;;0.47;0.47;;;;;;;10.55;88.63;97114.53;7394748;19;20507;-55
2023/01/17 08:42:59;;;;;;;15.60;2.58;;;;;;;10.10;86.20;97121.63;7393460;19;20010;-55
2023/01/17 08:45:26;;;;;;;3.05;1.33;;;;;;;11.82;89.03;97118.13;7395807;19;20034;-55
2023/01/17 08:47:53;;;;;;;10.48;1.98;;;;;;;13.13;78.25;97122.16;7391923;19;20025;-55
2023/01/17 08:50:19;;;;;;;0.88;0.88;;;;;;;10.39;87.38;97126.06;7395024;19;20010;-54
2023/01/17 08:52:47;;;;;;;1.25;1.15;;;;;;;7.02;95.22;97127.44;7391010;19;20011;-54
2023/01/17 08:55:14;;;;;;;9.23;1.70;;;;;;;9.56;90.89;97114.66;7393995;19;20018;-55
2023/01/17 08:57:40;;;;;;;5.90;1.85;;;;;;;9.73;89.92;97122.66;7390698;19;20019;-55
2023/01/17 09:00:07;;;;;;;2.10;0.85;;;;;;;9.58;91.57;97128.00;7389783;19;20014;-54
2023/01/17 09:02:35;;;;;;;6.57;1.88;;;;;;;9.67;91.02;97124.81;7391831;19;20014;-54
2023/01/17 09:05:01;;;;;;;6.13;1.08;;;;;;;9.77;89.81;97131.41;7390517;19;20026;-55
2023/01/17 09:07:27;;;;;;;0.95;0.50;;;;;;;10.10;89.61;97130.72;7389783;19;20019;-55
2023/01/17 09:09:53;;;;;;;1.90;1.30;;;;;;;10.00;89.84;97126.91;7391260;19;20010;-55
2023/01/17 09:12:21;;;;;;;7.43;1.60;;;;;;;10.20;89.52;97134.56;7391067;19;20070;-54
2023/01/17 09:14:47;;;;;;;11.55;2.30;;;;;;;10.34;87.97;97133.25;7390084;19;20455;-54
2023/01/17 09:17:14;;;;;;;2.47;1.17;;;;;;;10.39;87.39;97135.16;7390842;19;20018;-54
2023/01/17 09:19:44;;;;;;;2.90;1.58;;;;;;;10.61;85.91;97137.41;7391732;19;20010;-55
2023/01/17 09:22:10;;;;;;;9.13;2.08;;;;;;;10.31;86.04;97142.66;7391266;19;20011;-55
2023/01/17 09:24:37;;;;;;;1.15;0.98;;;;;;;10.29;86.28;97156.38;7391192;19;20006;-55
2023/01/17 09:27:03;;;;;;;1.88;1.13;;;;;;;10.34;85.64;97149.94;7391675;19;20011;-54
2023/01/17 09:29:29;;;;;;;9.55;0.98;;;;;;;10.36;85.91;97154.97;7390658;19;20015;-55
2023/01/17 09:31:55;;;;;;;0.57;0.50;;;;;;;10.43;85.93;97151.53;7390610;19;20072;-54
2023/01/17 09:34:23;;;;;;;13.95;1.50;;;;;;;10.59;86.15;97156.69;7390094;19;20463;-54
2023/01/17 09:36:49;;;;;;;7.85;1.80;;;;;;;10.89;84.58;97161.09;7394277;19;20018;-55
2023/01/17 09:39:15;;;;;;;7.00;0.82;;;;;;;10.91;83.77;97152.94;7394993;19;20045;-55
2023/01/17 09:41:53;;;;;;;4.25;1.42;;;;;;;10.96;83.75;97155.56;7390415;19;20014;-55
2023/01/17 09:44:37;;;;;;;1.00;0.70;;;;;;;11.12;83.80;97151.63;7388794;19;20018;-55
2023/01/17 09:47:15;;;;;;;3.50;2.15;;;;;;;11.35;81.83;97149.00;7390232;19;20028;-55
2023/01/17 09:49:44;;;;;;;1.10;1.05;;;;;;;11.42;81.42;97145.53;7390873;19;20017;-55
2023/01/17 09:52:17;;;;;;;21.73;1.42;;;;;;;11.29;81.13;97157.53;7389522;19;20014;-55
2023/01/17 09:54:46;;;;;;;10.95;0.75;;;;;;;11.43;80.37;97158.19;7390307;19;20014;-55
2023/01/17 09:57:33;;;;;;;2.55;1.33;;;;;;;11.42;80.62;97156.69;7389315;19;20721;-55
2023/01/17 10:00:11;;;;;;;5.93;1.25;;;;;;;11.20;80.78;97151.69;7387963;19;20021;-55
2023/01/17 10:02:50;;;;;;;0.65;0.65;;;;;;;11.47;80.16;97158.59;7388586;19;20010;-55
2023/01/17 10:05:47;;;;;;;4.22;1.67;;;;;;;11.66;79.86;97159.06;7391267;19;20347;-55
2023/01/17 10:08:26;;;;;;;0.75;0.75;;;;;;;11.60;79.85;97161.28;7389740;19;20015;-55
2023/01/17 10:11:26;;;;;;;2.92;1.20;;;;;;;11.47;80.88;97168.97;7389200;19;20451;-55
2023/01/17 10:14:23;;;;;;;16.55;3.65;;;;;;;11.58;80.70;97169.44;7397020;19;20035;-55
2023/01/17 10:16:56;;;;;;;3.42;1.00;;;;;;;11.91;79.59;97176.91;7401393;19;20019;-55
2023/01/17 10:19:41;;;;;;;0.90;0.90;;;;;;;11.53;79.94;97175.91;7397145;19;20011;-55
2023/01/17 10:22:23;;;;;;;0.50;0.20;;;;;;;12.37;81.37;97175.06;7396809;19;20066;-55
2023/01/17 10:24:52;;;;;;;3.00;1.10;;;;;;;9.66;98.09;97187.19;7396841;19;20010;-55
2023/01/17 10:27:24;;;;;;;4.53;1.33;;;;;;;5.27;100.00;97195.72;7396277;19;20010;-55
2023/01/17 10:29:50;;;;;;;0.95;0.73;;;;;;;3.48;100.00;97203.44;7396655;19;20014;-55
2023/01/17 10:32:19;;;;;;;0.17;0.15;;;;;;;2.65;100.00;97193.84;7396832;19;20078;-55
2023/01/17 10:34:51;;;;;;;21.15;1.33;;;;;;;8.40;100.00;97191.56;7395276;19;20010;-54
2023/01/17 10:37:30;;;;;;;1.70;0.63;;;;;;;10.73;99.95;97192.84;7394808;19;20018;-54
2023/01/17 10:40:12;;;;;;;5.10;1.92;;;;;;;11.48;89.97;97192.78;7396546;19;20066;-55
2023/01/17 10:42:49;;;;;;;7.65;1.38;;;;;;;12.73;86.66;97194.56;7399696;19;20010;-55
2023/01/17 10:45:24;;;;;;;5.05;1.00;;;;;;;4.69;100.00;97204.28;7395589;19;20018;-54
2023/01/17 10:48:01;;;;;;;3.53;1.20;;;;;;;3.55;100.00;97215.97;7395903;19;20006;-55
2023/01/17 10:50:32;;;;;;;2.17;1.27;;;;;;;2.81;100.00;97210.47;7396602;19;20021;-55
2023/01/17 10:53:03;;;;;;;2.27;1.37;;;;;;;2.50;100.00;97215.94;7394525;19;20340;-54
2023/01/17 10:55:50;;;;;;;3.25;0.68;;;;;;;2.35;100.00;97220.78;7396563;19;20255;-54
2023/01/17 10:58:16;;;;;;;0.70;0.70;;;;;;;2.12;100.00;97216.31;7394070;19;20033;-54
2023/01/17 11:01:00;;;;;;;9.70;1.73;;;;;;;2.34;100.00;97222.03;7395534;19;20030;-54
2023/01/17 11:03:27;;;;;;;1.27;0.70;;;;;;;2.06;100.00;97223.72;7395292;19;20078;-54
2023/01/17 11:06:24;;;;;;;0.60;0.50;;;;;;;2.89;100.00;97224.53;7396371;19;20010;-55
2023/01/17 11:08:50;;;;;;;5.68;1.40;;;;;;;2.77;100.00;97212.66;7397171;19;20325;-55
2023/01/17 11:11:17;;;;;;;2.35;1.20;;;;;;;2.67;100.00;97211.34;7394376;19;20018;-55
2023/01/17 11:13:46;;;;;;;0.38;0.38;;;;;;;3.03;100.00;97202.38;7394842;19;20010;-55
2023/01/17 11:16:24;;;;;;;1.38;1.00;;;;;;;3.03;100.00;97202.38;7395410;19;20014;-55
2023/01/17 11:19:04;;;;;;;3.92;0.85;;;;;;;3.17;100.00;97210.97;7391583;19;20360;-54
2023/01/17 11:21:31;;;;;;;3.30;1.07;;;;;;;3.14;100.00;97211.97;7394194;19;20052;-55
2023/01/17 11:24:09;;;;;;;1.70;1.30;;;;;;;2.95;100.00;97206.81;7391841;19;20010;-55
2023/01/17 11:26:37;;;;;;;0.45;0.45;;;;;;;3.00;100.00;97197.88;7397471;19;20344;-54
2023/01/17 11:29:38;;;;;;;5.22;1.40;;;;;;;3.08;100.00;97204.41;7391796;19;20352;-55
2023/01/17 11:32:30;;;;;;;4.05;1.30;;;;;;;3.03;100.00;97207.16;7394688;19;20007;-55
2023/01/17 11:35:15;;;;;;;0.10;0.10;;;;;;;2.89;100.00;97206.03;7394256;19;20471;-55
2023/01/17 11:37:51;;;;;;;10.10;1.63;;;;;;;2.98;100.00;97208.59;7394746;19;20027;-54
2023/01/17 11:40:22;;;;;;;11.70;1.00;;;;;;;2.98;100.00;97200.38;7394295;19;20015;-54
2023/01/17 11:43:01;;;;;;;1.92;0.63;;;;;;;2.93;100.00;97201.06;7393937;19;20031;-56
2023/01/17 11:45:30;;;;;;;4.95;3.35;;;;;;;2.91;100.00;97195.31;7394806;19;20455;-54
2023/01/17 11:48:11;;;;;;;11.90;2.05;;;;;;;2.32;100.00;97199.06;7394074;19;20010;-54
2023/01/17 11:50:56;;;;;;;11.45;1.75;;;;;;;1.59;100.00;97188.50;7393721;19;20097;-55
2023/01/17 11:53:46;;;;;;;3.22;1.35;;;;;;;1.48;100.00;97194.59;7393729;19;20450;-55
2023/01/17 11:56:35;;;;;;;0.30;0.30;;;;;;;1.47;100.00;97196.56;7394637;19;20011;-54
2023/01/17 11:59:22;;;;;;;4.68;1.30;;;;;;;1.49;100.00;97193.38;7394640;19;20015;-54
2023/01/17 12:02:07;;;;;;;0.88;0.65;;;;;;;1.50;100.00;97195.63;7391481;19;20036;-55
2023/01/17 12:04:41;;;;;;;0.93;0.93;;;;;;;4.58;100.00;97191.25;7391572;19;20007;-54
2023/01/17 12:07:22;;;;;;;4.22;1.35;;;;;;;3.45;100.00;97181.63;7392715;19;20011;-55
2023/01/17 12:09:59;;;;;;;2.42;0.93;;;;;;;4.47;100.00;97188.47;7392784;19;20023;-54
2023/01/17 12:15:41;;;;;;;7.22;2.00;;;;;;;7.20;100.00;97178.59;7392736;19;20455;-54
2023/01/17 12:18:10;;;;;;;1.60;1.50;;;;;;;7.65;100.00;97183.16;7392579;19;20337;-54
2023/01/17 12:20:51;;;;;;;5.63;2.15;;;;;;;7.66;100.00;97170.06;7392557;19;20351;-54
2023/01/17 12:24:22;;;;;;;2.47;2.03;;;;;;;7.76;100.00;97168.41;7391564;19;20022;-55
2023/01/17 12:27:02;;;;;;;5.38;1.13;;;;;;;5.99;100.00;97176.19;7392362;19;20025;-54
2023/01/17 12:29:37;;;;;;;36.95;2.55;;;;;;;4.49;100.00;97175.69;7389236;19;20436;-54
2023/01/17 12:32:25;;;;;;;8.32;1.92;;;;;;;2.76;100.00;97178.22;7391533;19;20618;-54
2023/01/17 12:35:19;;;;;;;0.75;0.45;;;;;;;2.15;100.00;97171.41;7391397;19;20026;-54
2023/01/17 12:37:52;;;;;;;3.70;1.23;;;;;;;2.70;100.00;97169.19;7389667;19;20364;-54
2023/01/17 12:40:26;;;;;;;1.15;0.57;;;;;;;3.60;100.00;97171.19;7390882;19;20010;-54
2023/01/17 12:43:29;;;;;;;0.32;0.32;;;;;;;3.75;100.00;97177.25;7391522;19;20022;-54
2023/01/17 12:45:57;;;;;;;10.75;2.13;;;;;;;3.76;100.00;97178.78;7392908;19;20007;-54
2023/01/17 12:48:29;;;;;;;1.15;0.43;;;;;;;3.01;100.00;97177.38;7389888;19;20402;-54
2023/01/17 12:51:11;;;;;;;7.85;1.27;;;;;;;2.34;100.00;97183.56;7391637;19;20018;-54
2023/01/17 12:53:49;;;;;;;6.18;1.27;;;;;;;2.26;100.00;97179.75;7391325;19;20018;-54
2023/01/17 12:56:33;;;;;;;11.73;2.55;;;;;;;2.26;100.00;97172.28;7392583;19;20424;-54
2023/01/17 12:59:14;;;;;;;4.55;1.85;;;;;;;2.27;100.00;97182.00;7392064;19;20021;-54
2023/01/17 13:01:56;;;;;;;13.75;2.65;;;;;;;2.21;100.00;97172.97;7391017;19;20011;-55
2023/01/17 13:04:33;;;;;;;4.03;1.15;;;;;;;2.34;100.00;97180.09;7393876;19;20017;-55
2023/01/17 13:07:01;;;;;;;9.95;2.30;;;;;;;6.53;100.00;97161.78;7395707;19;20070;-54
2023/01/17 13:09:38;;;;;;;1.48;1.13;;;;;;;9.54;100.00;97166.47;7392134;19;20336;-55
2023/01/17 13:12:18;;;;;;;2.63;0.85;;;;;;;2.94;100.00;97166.84;7391873;19;20010;-56